Time;durP1;ratioP1;P1;durP2;ratioP2;P2;SDS_P1;SDS_P2;PMS_P1;PMS_P2;Temp;Humidity;BMP_temperature;BMP_pressure;BME280_temperature;BME280_humidity;BME280_pressure;Samples;Min_cycle;Max_cycle;Signal;HPM_P1;HPM_P2
2021/09/29 00:02:15;;;;;;;5.63;3.13;;;;;;;5.69;47.82;100010.19;4924582;29;20059;-76
2021/09/29 00:04:41;;;;;;;4.10;3.15;;;;;;;5.63;48.15;100010.47;4924477;29;20058;-77
2021/09/29 00:07:08;;;;;;;5.65;3.38;;;;;;;5.54;48.01;99996.72;4924324;29;20056;-78
2021/09/29 00:09:33;;;;;;;4.10;3.00;;;;;;;5.63;48.24;100010.47;4893368;29;20528;-76
2021/09/29 00:11:59;;;;;;;3.88;3.28;;;;;;;5.63;48.22;100016.63;4893024;29;20047;-77
2021/09/29 00:14:25;;;;;;;4.55;3.40;;;;;;;5.68;48.00;100004.03;4924449;29;20063;-76
2021/09/29 00:16:51;;;;;;;7.55;4.10;;;;;;;5.72;48.05;100010.03;4924496;29;20043;-77
2021/09/29 00:19:17;;;;;;;5.65;3.30;;;;;;;5.66;48.02;100012.97;4908507;29;20102;-77
2021/09/29 00:21:43;;;;;;;6.75;3.50;;;;;;;5.66;48.16;100018.28;4874404;29;20467;-77
2021/09/29 00:24:09;;;;;;;4.22;2.88;;;;;;;5.69;47.97;100020.78;4921251;29;20054;-77
2021/09/29 00:26:35;;;;;;;5.78;3.40;;;;;;;5.45;48.48;100017.53;4905682;29;20492;-76
2021/09/29 00:29:01;;;;;;;3.10;2.78;;;;;;;5.41;48.57;100027.41;4921264;29;20064;-75
2021/09/29 00:34:08;;;;;;;4.13;2.75;;;;;;;5.40;48.50;100031.00;4936895;29;20446;-76
2021/09/29 00:36:36;;;;;;;4.72;3.53;;;;;;;5.31;48.77;100020.84;4937277;29;20043;-76
2021/09/29 00:39:02;;;;;;;4.85;3.53;;;;;;;5.42;48.74;100023.00;4936883;29;20111;-76
2021/09/29 00:41:28;;;;;;;4.20;3.22;;;;;;;5.48;48.62;100025.34;4921079;29;20082;-75
2021/09/29 00:43:54;;;;;;;5.25;2.97;;;;;;;5.45;48.81;100028.97;4905551;29;20122;-77
2021/09/29 00:46:20;;;;;;;3.47;2.90;;;;;;;5.43;48.73;100030.00;4921176;29;20039;-76
2021/09/29 00:48:45;;;;;;;5.25;3.55;;;;;;;5.44;48.92;100029.06;4920570;29;20551;-76
2021/09/29 00:51:12;;;;;;;5.72;3.17;;;;;;;5.43;49.11;100028.22;4936956;29;20075;-76
2021/09/29 00:53:38;;;;;;;6.00;3.13;;;;;;;5.37;48.95;100020.53;4920729;29;20411;-77
2021/09/29 00:56:05;;;;;;;6.00;3.20;;;;;;;5.40;49.06;100020.41;4920815;29;20058;-76
2021/09/29 00:58:31;;;;;;;4.63;3.05;;;;;;;5.41;48.93;100016.81;4936601;29;20055;-76
2021/09/29 01:00:57;;;;;;;10.60;3.40;;;;;;;5.44;48.92;100029.91;4920641;29;20471;-77
2021/09/29 01:03:23;;;;;;;3.72;2.70;;;;;;;5.41;48.63;100029.22;4917648;29;20453;-77
2021/09/29 01:05:50;;;;;;;4.68;3.00;;;;;;;5.34;49.19;100036.59;4933439;29;20403;-76
2021/09/29 01:08:17;;;;;;;3.28;2.83;;;;;;;5.29;48.98;100038.59;4936319;29;20492;-76
2021/09/29 01:10:59;;;;;;;4.97;2.92;;;;;;;5.36;49.22;100040.03;4936433;29;20130;-77
2021/09/29 01:13:27;;;;;;;5.50;3.20;;;;;;;5.24;49.47;100040.63;4889009;29;20058;-77
2021/09/29 01:16:00;;;;;;;4.57;3.10;;;;;;;5.26;49.36;100036.94;4936136;29;20455;-76
2021/09/29 01:18:26;;;;;;;3.30;3.00;;;;;;;5.33;49.41;100048.13;4904869;29;20139;-76
2021/09/29 01:20:58;;;;;;;8.30;4.30;;;;;;;5.39;49.27;100044.34;4904573;29;20110;-77
2021/09/29 01:23:28;;;;;;;4.10;3.28;;;;;;;5.40;49.23;100030.16;4936291;29;20051;-76
2021/09/29 01:25:57;;;;;;;3.58;3.28;;;;;;;5.31;49.11;100031.47;4920369;29;20047;-76
2021/09/29 01:28:32;;;;;;;8.05;3.85;;;;;;;5.30;49.32;100054.47;4935918;29;20055;-76
2021/09/29 01:30:58;;;;;;;3.65;3.08;;;;;;;5.35;49.29;100043.63;4920138;29;20048;-77
2021/09/29 01:33:25;;;;;;;4.72;3.30;;;;;;;5.50;49.26;100057.94;4904455;29;20040;-76
2021/09/29 01:35:51;;;;;;;3.42;2.92;;;;;;;5.47;49.12;100045.69;4934706;29;20150;-77
2021/09/29 01:38:17;;;;;;;5.30;3.13;;;;;;;5.46;48.90;100046.63;4904208;29;20137;-77
2021/09/29 01:40:43;;;;;;;4.38;3.08;;;;;;;5.52;48.81;100040.16;4919996;29;20048;-77
2021/09/29 01:43:09;;;;;;;4.22;3.05;;;;;;;5.60;48.67;100060.09;4919948;29;20047;-77
2021/09/29 01:45:36;;;;;;;3.33;3.03;;;;;;;5.55;48.51;100046.19;4919948;29;20144;-76
2021/09/29 01:48:02;;;;;;;5.80;3.33;;;;;;;5.52;48.75;100053.41;4904366;29;20051;-79
2021/09/29 01:50:29;;;;;;;3.72;2.65;;;;;;;5.50;48.70;100064.13;4935503;29;20039;-76
2021/09/29 01:52:57;;;;;;;4.15;2.90;;;;;;;5.41;49.17;100059.22;4903604;29;20317;-76
2021/09/29 01:55:23;;;;;;;3.17;2.67;;;;;;;5.33;49.41;100061.38;4903594;29;20039;-76
2021/09/29 01:57:49;;;;;;;4.40;3.20;;;;;;;5.32;49.24;100052.56;4919505;29;20513;-77
2021/09/29 02:00:16;;;;;;;3.30;3.00;;;;;;;5.33;49.47;100056.94;4903843;29;20131;-75
2021/09/29 02:02:43;;;;;;;5.43;3.30;;;;;;;5.23;49.71;100065.41;4919534;29;20530;-76
2021/09/29 02:05:09;;;;;;;6.30;3.25;;;;;;;5.03;50.08;100045.97;4935196;29;20071;-76
2021/09/29 02:07:35;;;;;;;3.85;3.30;;;;;;;5.02;50.19;100049.56;4934832;29;20043;-76
2021/09/29 02:10:03;;;;;;;3.38;3.08;;;;;;;5.07;50.15;100055.50;4887633;29;20091;-77
2021/09/29 02:12:30;;;;;;;5.32;3.13;;;;;;;5.21;50.01;100067.28;4918945;29;20039;-75
2021/09/29 02:14:56;;;;;;;4.95;2.72;;;;;;;5.07;50.21;100065.25;4904029;29;20564;-76
2021/09/29 02:17:22;;;;;;;5.03;2.90;;;;;;;5.07;50.09;100071.41;4935035;29;20067;-74
2021/09/29 02:19:48;;;;;;;8.73;2.83;;;;;;;5.06;50.23;100068.84;4919211;29;20551;-75
2021/09/29 02:22:16;;;;;;;3.83;2.90;;;;;;;5.06;50.11;100056.44;4918950;29;20491;-77
2021/09/29 02:24:43;;;;;;;5.70;2.95;;;;;;;4.92;50.25;100061.50;4888034;29;20506;-77
2021/09/29 02:27:10;;;;;;;5.93;3.05;;;;;;;5.02;50.28;100073.41;4919035;29;20103;-76
2021/09/29 02:29:36;;;;;;;3.72;2.70;;;;;;;5.04;50.20;100075.97;4934713;29;20043;-76
2021/09/29 02:32:02;;;;;;;5.28;2.70;;;;;;;4.99;50.32;100072.69;4903064;29;20047;-77
2021/09/29 02:34:28;;;;;;;3.95;2.80;;;;;;;5.00;50.54;100075.28;4919195;29;20106;-76
2021/09/29 02:36:54;;;;;;;6.75;3.22;;;;;;;4.99;50.76;100067.38;4903205;29;20040;-77
2021/09/29 02:39:20;;;;;;;5.05;3.10;;;;;;;5.01;50.31;100066.41;4934876;29;20052;-76
2021/09/29 02:41:46;;;;;;;5.80;3.03;;;;;;;5.07;50.86;100091.75;4919781;29;20052;-76
2021/09/29 02:44:12;;;;;;;4.13;2.97;;;;;;;5.02;50.81;100089.31;4902808;29;20073;-77
2021/09/29 02:46:39;;;;;;;10.25;4.00;;;;;;;4.96;50.89;100084.28;4918463;29;20126;-77
2021/09/29 02:49:05;;;;;;;7.20;3.35;;;;;;;4.99;50.67;100086.78;4933968;29;20047;-78
2021/09/29 02:51:31;;;;;;;7.10;3.40;;;;;;;4.94;50.90;100074.69;4887127;29;20044;-76
2021/09/29 02:53:57;;;;;;;5.00;3.10;;;;;;;4.98;50.84;100082.44;4919110;29;20130;-77
2021/09/29 02:56:29;;;;;;;5.72;3.53;;;;;;;4.97;50.83;100074.56;4918618;29;20107;-77
2021/09/29 02:58:56;;;;;;;6.13;3.50;;;;;;;5.05;50.58;100088.31;4918537;29;20065;-80
2021/09/29 03:01:25;;;;;;;4.30;2.90;;;;;;;5.16;50.46;100090.50;4887682;29;20047;-76
2021/09/29 03:03:52;;;;;;;4.57;2.92;;;;;;;5.09;50.59;100101.34;4918542;29;20514;-77
2021/09/29 03:06:18;;;;;;;5.20;3.67;;;;;;;5.11;50.54;100086.25;4918690;29;20054;-76
2021/09/29 03:08:44;;;;;;;5.30;3.80;;;;;;;5.25;50.34;100096.22;4887656;29;20039;-75
2021/09/29 03:11:20;;;;;;;6.38;3.53;;;;;;;5.35;50.14;100094.84;4918812;29;20055;-77
2021/09/29 03:13:47;;;;;;;4.32;2.92;;;;;;;5.32;49.88;100091.50;4933798;29;20082;-76
2021/09/29 03:16:14;;;;;;;4.68;3.22;;;;;;;5.30;50.08;100086.28;4918288;29;20416;-77
2021/09/29 03:18:41;;;;;;;6.40;3.20;;;;;;;5.32;50.07;100096.78;4918210;29;20099;-76
2021/09/29 03:21:07;;;;;;;13.57;3.35;;;;;;;5.31;50.23;100089.78;4934201;29;20051;-77
2021/09/29 03:23:33;;;;;;;4.68;3.50;;;;;;;5.48;49.93;100107.53;4918018;29;20582;-77
2021/09/29 03:25:59;;;;;;;5.15;3.20;;;;;;;5.57;49.68;100094.72;4918389;29;20562;-76
2021/09/29 03:28:25;;;;;;;4.20;3.20;;;;;;;5.59;49.46;100095.47;4902517;29;20066;-77
2021/09/29 03:30:51;;;;;;;4.00;2.97;;;;;;;5.67;49.11;100100.41;4918125;29;20050;-76
2021/09/29 03:33:17;;;;;;;5.47;2.92;;;;;;;5.55;49.56;100093.91;4918234;29;20549;-77
2021/09/29 03:35:46;;;;;;;3.60;2.97;;;;;;;5.49;50.00;100099.53;4902289;29;20092;-77
2021/09/29 03:38:11;;;;;;;4.05;3.10;;;;;;;5.54;49.99;100108.13;4886679;29;20578;-77
2021/09/29 03:40:37;;;;;;;4.25;3.15;;;;;;;5.63;49.83;100111.25;4902563;29;20134;-77
2021/09/29 03:43:04;;;;;;;3.65;3.15;;;;;;;5.68;49.83;100111.88;4902351;29;20561;-75
2021/09/29 03:45:30;;;;;;;5.55;3.47;;;;;;;5.80;49.70;100109.53;4934228;29;20118;-76
2021/09/29 03:47:56;;;;;;;7.75;3.85;;;;;;;5.99;49.40;100120.16;4917874;29;20047;-78
2021/09/29 03:50:22;;;;;;;7.65;3.60;;;;;;;5.80;49.27;100113.97;4883931;29;20142;-77
2021/09/29 03:52:48;;;;;;;3.83;3.33;;;;;;;5.73;49.67;100101.94;4914313;29;20040;-77
2021/09/29 03:55:14;;;;;;;8.68;3.63;;;;;;;5.99;49.07;100109.53;4918311;29;20071;-77
2021/09/29 03:57:40;;;;;;;9.40;3.65;;;;;;;6.14;48.98;100122.97;4918143;29;20044;-76
2021/09/29 04:00:10;;;;;;;4.47;3.50;;;;;;;6.31;49.22;100117.69;4872182;29;20456;-76
2021/09/29 04:02:37;;;;;;;4.75;3.78;;;;;;;6.40;48.71;100103.97;4905748;29;20043;-78
2021/09/29 04:05:06;;;;;;;7.68;3.70;;;;;;;6.51;48.32;100117.56;4906129;29;20091;-77
2021/09/29 04:07:32;;;;;;;;;;;;;;;6.55;48.17;100119.09;4922181;29;20495;-77
2021/09/29 04:09:58;;;;;;;8.05;4.25;;;;;;;6.78;48.12;100119.72;4921634;29;19919;-78
2021/09/29 04:12:24;;;;;;;8.10;3.80;;;;;;;6.65;47.33;100121.28;4921414;29;20058;-77
2021/09/29 04:14:51;;;;;;;4.15;3.30;;;;;;;6.45;47.44;100119.66;4937133;29;20039;-75
2021/09/29 04:17:17;;;;;;;9.57;3.47;;;;;;;6.30;47.99;100124.78;4936396;29;20098;-79
2021/09/29 04:19:43;;;;;;;4.00;3.60;;;;;;;6.15;48.11;100122.91;4921495;29;20118;-78
2021/09/29 04:22:12;;;;;;;4.85;3.10;;;;;;;6.16;48.13;100131.72;4933055;29;20566;-76
2021/09/29 04:24:39;;;;;;;8.10;3.97;;;;;;;6.40;47.91;100132.31;4921564;29;20048;-76
2021/09/29 04:27:05;;;;;;;9.52;4.22;;;;;;;6.40;47.87;100109.25;4889818;29;20039;-76
2021/09/29 04:29:31;;;;;;;7.53;3.75;;;;;;;6.65;47.47;100102.69;4905332;29;20042;-78
2021/09/29 04:31:57;;;;;;;6.57;3.88;;;;;;;6.89;47.33;100122.69;4905864;29;20048;-81
2021/09/29 04:34:23;;;;;;;11.07;3.72;;;;;;;6.86;47.02;100117.53;4892530;29;20107;-79
2021/09/29 04:36:49;;;;;;;4.88;3.60;;;;;;;6.81;48.43;100119.56;4893870;29;20171;-85
2021/09/29 04:39:15;;;;;;;5.60;3.78;;;;;;;7.19;49.39;100119.34;4891058;29;20170;-77
2021/09/29 04:41:41;;;;;;;8.13;4.03;;;;;;;7.29;46.52;100093.94;4937961;29;20044;-76
2021/09/29 04:44:07;;;;;;;11.38;4.78;;;;;;;7.53;46.12;100108.56;4920610;29;20087;-77
2021/09/29 04:46:33;;;;;;;7.25;4.38;;;;;;;7.57;45.63;100119.91;4904948;29;20515;-76
2021/09/29 04:48:59;;;;;;;13.68;4.75;;;;;;;7.56;45.14;100102.22;4904903;29;20047;-79
2021/09/29 04:51:25;;;;;;;6.63;4.32;;;;;;;7.65;44.95;100116.81;4889330;29;20040;-76
2021/09/29 04:53:52;;;;;;;8.27;4.45;;;;;;;7.60;44.93;100114.41;4889424;29;20554;-78
2021/09/29 04:56:18;;;;;;;6.20;4.00;;;;;;;7.59;44.81;100117.16;4889302;29;20048;-76
2021/09/29 04:58:44;;;;;;;6.80;3.90;;;;;;;7.47;44.61;100124.00;4904922;29;20058;-78
2021/09/29 05:01:11;;;;;;;6.65;3.40;;;;;;;7.30;44.88;100112.50;4904542;29;20048;-77
2021/09/29 05:03:37;;;;;;;8.05;3.72;;;;;;;7.21;44.83;100102.34;4888935;29;20048;-76
2021/09/29 05:06:03;;;;;;;4.82;4.00;;;;;;;7.23;45.03;100103.13;4903548;29;20095;-78
2021/09/29 05:08:30;;;;;;;4.18;3.40;;;;;;;7.20;45.49;100094.47;4888914;29;20044;-77
2021/09/29 05:11:15;;;;;;;4.90;3.28;;;;;;;7.20;45.51;100113.94;4904559;29;20134;-76
2021/09/29 05:13:42;;;;;;;4.05;3.00;;;;;;;7.13;45.85;100114.34;4904701;29;20094;-77
2021/09/29 05:16:08;;;;;;;3.78;2.80;;;;;;;7.16;46.01;100104.41;4920541;29;20055;-77
2021/09/29 05:18:33;;;;;;;6.75;3.53;;;;;;;7.44;45.45;100103.75;4904720;29;20099;-76
2021/09/29 05:20:59;;;;;;;4.75;3.00;;;;;;;7.54;45.19;100094.31;4888968;29;20130;-77
2021/09/29 05:23:26;;;;;;;5.07;3.28;;;;;;;7.76;44.40;100111.75;4920248;29;20055;-76
2021/09/29 05:25:52;;;;;;;4.22;3.25;;;;;;;7.92;43.94;100109.94;4888823;29;20395;-77
2021/09/29 05:28:23;;;;;;;4.93;3.80;;;;;;;8.03;43.12;100117.31;4888893;29;20039;-77
2021/09/29 05:30:49;;;;;;;8.02;3.75;;;;;;;8.12;42.89;100100.78;4904756;29;20061;-76
2021/09/29 05:33:16;;;;;;;7.55;4.47;;;;;;;8.17;41.81;100092.56;4878274;29;20389;-76
2021/09/29 05:35:42;;;;;;;5.13;3.10;;;;;;;8.34;40.88;100105.75;4886165;29;20040;-77
2021/09/29 05:38:08;;;;;;;7.53;2.75;;;;;;;8.44;39.67;100112.28;4903830;29;20108;-76
2021/09/29 05:40:33;;;;;;;5.57;3.00;;;;;;;8.15;39.00;100105.94;4904754;29;20495;-76
2021/09/29 05:43:00;;;;;;;3.42;3.00;;;;;;;8.07;39.42;100096.69;4891966;29;20111;-77
2021/09/29 05:45:26;;;;;;;2.80;2.60;;;;;;;8.14;39.54;100111.38;4909485;29;20063;-77
2021/09/29 05:47:52;;;;;;;2.88;2.28;;;;;;;8.20;39.32;100111.03;4902626;29;20094;-76
2021/09/29 05:50:21;;;;;;;7.55;3.00;;;;;;;8.11;39.30;100101.75;4890027;29;20050;-76
2021/09/29 05:52:47;;;;;;;8.07;3.20;;;;;;;8.30;39.80;100109.53;4903704;29;20048;-76
2021/09/29 05:55:13;;;;;;;11.60;3.30;;;;;;;8.37;39.75;100113.59;4888923;29;20446;-78
2021/09/29 05:57:40;;;;;;;3.92;2.60;;;;;;;8.37;39.91;100105.59;4888229;29;20052;-78
2021/09/29 06:00:06;;;;;;;5.63;3.03;;;;;;;8.48;39.81;100113.81;4901395;29;20423;-77
2021/09/29 06:02:37;;;;;;;4.57;2.60;;;;;;;8.33;39.59;100125.34;4902746;29;20051;-77
2021/09/29 06:05:04;;;;;;;3.10;2.38;;;;;;;8.39;39.21;100108.19;4901080;29;20041;-78
2021/09/29 06:07:30;;;;;;;5.15;2.53;;;;;;;8.30;39.40;100114.84;4901541;29;20224;-76
2021/09/29 06:09:56;;;;;;;12.73;3.00;;;;;;;8.37;39.27;100105.59;4885623;29;20043;-76
2021/09/29 06:12:22;;;;;;;3.20;2.60;;;;;;;8.38;38.90;100106.44;4916688;29;20043;-78
2021/09/29 06:14:50;;;;;;;4.30;2.70;;;;;;;8.43;39.10;100115.91;4884176;29;20036;-77
2021/09/29 06:17:41;;;;;;;14.25;3.17;;;;;;;8.43;38.59;100102.59;4915900;29;20036;-76
2021/09/29 06:20:08;;;;;;;5.15;2.58;;;;;;;8.10;39.15;100100.03;4906085;29;20048;-77
2021/09/29 06:22:35;;;;;;;5.97;2.65;;;;;;;8.12;39.13;100095.47;4903274;29;20051;-76
2021/09/29 06:25:01;;;;;;;3.83;3.40;;;;;;;8.18;39.62;100100.44;4887655;29;20188;-78
2021/09/29 06:27:27;;;;;;;4.95;2.72;;;;;;;8.33;38.67;100098.69;4903677;29;20134;-78
2021/09/29 06:29:53;;;;;;;5.22;2.70;;;;;;;8.51;38.18;100102.97;4887895;29;20151;-77
2021/09/29 06:32:19;;;;;;;6.22;2.75;;;;;;;8.45;38.02;100087.34;4903265;29;20044;-77
2021/09/29 06:34:45;;;;;;;4.35;2.45;;;;;;;8.80;39.06;100105.72;4904129;29;20191;-76
2021/09/29 06:37:11;;;;;;;2.60;2.20;;;;;;;9.05;37.14;100096.19;4919002;29;20055;-76
2021/09/29 06:39:37;;;;;;;3.50;2.30;;;;;;;9.26;36.33;100108.22;4903613;29;20051;-76
2021/09/29 06:42:03;;;;;;;3.97;2.35;;;;;;;9.34;36.38;100103.25;4919836;29;20058;-77
2021/09/29 06:44:31;;;;;;;3.58;2.50;;;;;;;9.14;35.26;100067.16;4887785;29;20036;-77
2021/09/29 06:46:59;;;;;;;4.57;2.50;;;;;;;9.26;35.17;100094.88;4904684;29;20118;-77
2021/09/29 06:49:25;;;;;;;5.60;2.20;;;;;;;9.49;35.03;100102.28;4889266;29;20035;-77
2021/09/29 06:51:54;;;;;;;1.90;1.80;;;;;;;9.37;34.16;100103.06;4920005;29;20482;-77
2021/09/29 06:54:21;;;;;;;;;;;;;;;9.11;34.40;100106.50;4903414;29;20071;-77
2021/09/29 06:56:50;;;;;;;9.02;2.13;;;;;;;9.11;34.58;100095.84;4918516;29;19922;-77
2021/09/29 06:59:16;;;;;;;3.40;2.60;;;;;;;9.25;35.16;100087.81;4919021;29;20056;-78
2021/09/29 07:01:43;;;;;;;5.30;3.10;;;;;;;9.37;35.25;100091.53;4887409;29;20082;-78
2021/09/29 07:04:09;;;;;;;4.50;2.60;;;;;;;9.59;35.14;100088.34;4903355;29;20069;-77
2021/09/29 07:06:35;;;;;;;1.98;1.88;;;;;;;9.53;34.32;100075.41;4902947;29;20052;-76
2021/09/29 07:09:02;;;;;;;5.07;2.25;;;;;;;9.63;34.80;100079.22;4886921;29;20043;-76
2021/09/29 07:11:30;;;;;;;2.15;1.95;;;;;;;9.69;33.66;100092.16;4887095;29;20050;-76
2021/09/29 07:13:57;;;;;;;3.03;1.98;;;;;;;9.85;33.93;100087.50;4875562;29;20060;-76
2021/09/29 07:16:25;;;;;;;2.40;2.20;;;;;;;9.87;34.11;100080.28;4868945;29;20040;-78
2021/09/29 07:18:53;;;;;;;2.95;2.22;;;;;;;9.99;34.41;100070.59;4899557;29;20040;-77
2021/09/29 07:21:19;;;;;;;3.00;2.30;;;;;;;10.23;34.30;100068.13;4868595;29;20040;-77
2021/09/29 07:23:48;;;;;;;2.72;2.30;;;;;;;10.31;34.59;100079.19;4883728;29;20147;-78
2021/09/29 07:26:14;;;;;;;6.43;2.30;;;;;;;10.42;34.48;100087.34;4884573;29;20056;-77
2021/09/29 07:28:40;;;;;;;4.90;2.10;;;;;;;10.60;34.56;100073.66;4868527;29;20292;-77
2021/09/29 07:31:06;;;;;;;3.05;2.38;;;;;;;10.54;34.42;100058.06;4884025;29;20040;-76
2021/09/29 07:33:36;;;;;;;5.70;2.45;;;;;;;10.80;34.29;100072.31;4885076;29;20104;-76
2021/09/29 07:36:03;;;;;;;2.63;2.03;;;;;;;10.86;34.10;100085.25;4872643;29;20080;-77
2021/09/29 07:38:31;;;;;;;;;;;;;;;10.87;34.51;100087.81;4888877;29;20083;-75
2021/09/29 07:40:57;;;;;;;2.90;2.28;;;;;;;10.75;34.80;100085.97;4872013;29;19966;-77
2021/09/29 07:43:24;;;;;;;2.40;2.20;;;;;;;10.66;35.04;100090.16;4872114;29;20044;-76
2021/09/29 07:45:50;;;;;;;2.47;2.25;;;;;;;10.81;34.89;100072.19;4887993;29;20048;-76
2021/09/29 07:48:17;;;;;;;3.30;2.28;;;;;;;10.90;34.52;100071.53;4903013;29;20044;-77
2021/09/29 07:50:51;;;;;;;5.70;2.65;;;;;;;10.87;34.69;100076.25;4874216;29;20107;-76
2021/09/29 07:53:20;;;;;;;12.23;2.30;;;;;;;10.91;35.27;100089.31;4887375;29;20487;-77
2021/09/29 07:55:46;;;;;;;2.22;2.05;;;;;;;11.21;34.68;100096.16;4872548;29;20104;-77
2021/09/29 07:58:12;;;;;;;3.97;2.33;;;;;;;11.19;34.70;100093.56;4872026;29;20047;-77
2021/09/29 08:00:39;;;;;;;3.78;2.20;;;;;;;11.65;34.59;100094.78;4887476;29;20112;-77
2021/09/29 08:03:05;;;;;;;4.32;2.40;;;;;;;11.60;34.61;100081.72;4871704;29;20083;-76
2021/09/29 08:05:31;;;;;;;6.10;2.50;;;;;;;11.71;35.53;100094.34;4871867;29;20040;-78
2021/09/29 08:07:57;;;;;;;3.78;2.58;;;;;;;11.62;35.88;100095.00;4887061;29;20055;-77
2021/09/29 08:10:23;;;;;;;3.95;2.80;;;;;;;11.77;36.26;100091.22;4902553;29;20386;-77
2021/09/29 08:12:49;;;;;;;6.57;2.78;;;;;;;12.09;36.03;100061.22;4872003;29;20212;-76
2021/09/29 08:15:16;;;;;;;5.38;3.03;;;;;;;12.25;36.19;100085.03;4921755;29;20051;-77
2021/09/29 08:17:43;;;;;;;7.03;3.20;;;;;;;12.23;36.33;100079.81;4905922;29;20162;-76
2021/09/29 08:20:10;;;;;;;7.93;3.55;;;;;;;12.25;36.80;100077.00;4889951;29;20431;-78
2021/09/29 08:22:38;;;;;;;4.93;3.17;;;;;;;12.26;36.55;100082.28;4889978;29;20051;-76
2021/09/29 08:27:46;;;;;;;7.30;2.88;;;;;;;11.78;36.72;100076.88;4890460;29;20035;-78
2021/09/29 08:31:00;;;;;;;8.73;2.65;;;;;;;11.67;37.19;100076.78;4921292;29;20106;-76
2021/09/29 08:35:31;;;;;;;3.88;2.70;;;;;;;11.36;38.31;100079.00;4904700;29;19923;-76
2021/09/29 08:38:04;;;;;;;5.20;3.00;;;;;;;11.47;38.24;100070.22;4890844;29;20099;-77
2021/09/29 08:43:42;;;;;;;10.32;3.35;;;;;;;11.94;38.23;100079.28;4857287;29;20127;-77
2021/09/29 08:46:17;;;;;;;3.97;3.08;;;;;;;12.15;37.61;100077.72;4928389;29;20199;-77
2021/09/29 08:48:57;;;;;;;3.15;2.60;;;;;;;12.02;37.47;100081.41;4906912;29;20526;-76
2021/09/29 09:18:14;;;;;;;4.85;3.00;;;;;;;12.35;35.56;100062.78;4903918;29;19923;-76
2021/09/29 09:20:44;;;;;;;3.85;2.60;;;;;;;12.12;36.36;100075.25;4889040;29;20452;-78
2021/09/29 09:23:10;;;;;;;11.43;2.90;;;;;;;11.83;36.83;100096.16;4905059;29;20518;-76
2021/09/29 09:25:38;;;;;;;8.50;2.97;;;;;;;11.81;36.83;100092.72;4888790;29;20066;-76
2021/09/29 09:28:05;;;;;;;8.18;2.80;;;;;;;11.40;35.46;100104.59;4904299;29;20436;-78
2021/09/29 09:30:35;;;;;;;16.05;2.78;;;;;;;11.42;36.59;100093.75;4904201;29;20047;-77
2021/09/29 09:33:01;;;;;;;7.43;3.35;;;;;;;11.76;36.46;100092.19;4904321;29;20050;-77
2021/09/29 09:35:47;;;;;;;14.30;3.60;;;;;;;12.11;36.60;100081.59;4903561;29;20048;-77
2021/09/29 09:38:18;;;;;;;4.65;2.90;;;;;;;12.41;35.07;100085.59;4906305;29;20423;-77
2021/09/29 09:40:44;;;;;;;3.10;2.80;;;;;;;12.01;35.75;100064.47;4905441;29;20126;-78
2021/09/29 09:43:12;;;;;;;5.00;2.85;;;;;;;12.15;35.64;100082.22;4903678;29;20085;-76
2021/09/29 09:45:43;;;;;;;3.38;2.75;;;;;;;11.99;35.74;100076.28;4903955;29;20138;-77
2021/09/29 09:48:38;;;;;;;5.75;3.40;;;;;;;11.98;36.14;100096.00;4905150;29;20051;-77
2021/09/29 09:51:06;;;;;;;4.10;2.50;;;;;;;11.85;36.27;100096.06;4900816;29;20424;-77
2021/09/29 09:53:35;;;;;;;8.38;4.00;;;;;;;12.04;35.66;100079.47;4919445;29;20044;-76
2021/09/29 09:56:20;;;;;;;3.38;2.58;;;;;;;12.09;34.71;100077.31;4903393;29;20415;-76
2021/09/29 09:58:47;;;;;;;7.30;2.90;;;;;;;12.24;35.50;100086.03;4904110;29;20035;-78
2021/09/29 10:01:17;;;;;;;5.38;3.10;;;;;;;12.66;34.57;100091.78;4904118;29;20052;-78
2021/09/29 10:03:44;;;;;;;5.22;2.70;;;;;;;12.47;34.03;100078.91;4888384;29;20518;-76
2021/09/29 10:06:10;;;;;;;6.75;3.13;;;;;;;12.30;35.06;100091.78;4903486;29;20566;-76
2021/09/29 10:08:38;;;;;;;7.97;3.30;;;;;;;12.16;35.47;100089.28;4903605;29;20059;-77
2021/09/29 10:11:11;;;;;;;3.50;3.20;;;;;;;12.07;35.51;100100.66;4887781;29;20494;-78
2021/09/29 10:27:36;;;;;;;7.05;2.90;;;;;;;11.72;35.78;100096.06;4887684;29;20191;-76
2021/09/29 10:30:12;;;;;;;5.78;2.80;;;;;;;11.70;34.99;100087.28;4919396;29;20130;-77
2021/09/29 10:32:43;;;;;;;3.88;2.72;;;;;;;11.73;34.48;100081.69;4920343;29;20082;-77
2021/09/29 10:40:38;;;;;;;3.95;2.97;;;;;;;12.83;33.34;100089.50;4888139;29;20091;-77
2021/09/29 10:43:05;;;;;;;5.43;3.10;;;;;;;13.31;31.97;100100.09;4905393;29;20043;-77
2021/09/29 11:12:06;;;;;;;;;;;;;;;13.86;31.00;100094.78;4902992;29;20087;-76
2021/09/29 11:30:52;;;;;;;4.22;2.72;;;;;;;13.94;29.53;100100.38;4902648;29;20051;-75
2021/09/29 11:33:43;;;;;;;2.95;2.42;;;;;;;14.14;29.41;100093.38;4888531;29;20093;-75
2021/09/29 11:36:53;;;;;;;6.18;2.78;;;;;;;13.80;29.89;100098.84;4891047;29;20107;-75
2021/09/29 12:09:50;;;;;;;3.78;2.88;;;;;;;12.85;32.56;100111.69;4919952;29;20044;-80
2021/09/29 12:12:32;;;;;;;6.40;2.88;;;;;;;12.59;32.89;100115.53;4891576;29;20048;-78
2021/09/29 12:15:01;;;;;;;3.80;2.35;;;;;;;12.58;32.73;100116.50;4890064;29;20181;-76
2021/09/29 12:17:40;;;;;;;;;;;;;;;12.44;33.16;100119.38;4918443;29;20051;-76
2021/09/29 12:20:16;;;;;;;10.53;2.87;;;;;;;12.48;33.06;100116.34;4887015;29;19923;-76
2021/09/29 12:22:49;;;;;;;5.95;3.25;;;;;;;12.50;33.08;100114.41;4890505;29;20783;-76
2021/09/29 12:31:28;;;;;;;4.40;2.40;;;;;;;12.78;31.48;100121.19;4892019;29;20052;-75
2021/09/29 12:34:12;;;;;;;3.85;2.78;;;;;;;12.12;32.44;100130.69;4901377;29;20048;-75
2021/09/29 12:36:38;;;;;;;3.08;2.42;;;;;;;11.85;33.22;100115.66;4875324;29;20555;-77
2021/09/29 12:39:16;;;;;;;5.07;3.20;;;;;;;11.72;33.80;100125.50;4870194;29;20040;-78
2021/09/29 12:41:50;;;;;;;5.47;3.28;;;;;;;11.93;33.67;100125.81;4870598;29;20044;-80
2021/09/29 12:44:18;;;;;;;5.93;2.97;;;;;;;12.13;32.94;100119.84;4886363;29;20055;-79
2021/09/29 12:47:02;;;;;;;7.45;3.03;;;;;;;13.08;32.05;100127.84;4870447;29;20048;-79
2021/09/29 12:49:28;;;;;;;4.40;2.80;;;;;;;14.27;30.79;100128.16;4886791;29;20474;-84
2021/09/29 12:52:10;;;;;;;5.45;2.63;;;;;;;14.96;28.62;100133.13;4870686;29;20100;-79
2021/09/29 12:54:45;;;;;;;2.85;2.42;;;;;;;15.17;27.88;100131.28;4874133;29;20503;-78
2021/09/29 12:57:11;;;;;;;4.95;2.78;;;;;;;15.56;27.74;100131.47;4885752;29;20060;-77
2021/09/29 12:59:37;;;;;;;3.40;2.60;;;;;;;16.12;26.41;100128.28;4885806;29;20388;-79
2021/09/29 13:02:03;;;;;;;6.28;2.40;;;;;;;16.35;25.87;100128.00;4907186;29;20066;-79
2021/09/29 13:04:29;;;;;;;3.05;2.53;;;;;;;16.19;26.00;100132.13;4888686;29;20039;-81
2021/09/29 13:06:57;;;;;;;3.75;2.60;;;;;;;16.46;25.58;100126.03;4919372;29;20507;-84
2021/09/29 13:09:26;;;;;;;8.07;3.13;;;;;;;16.63;26.59;100138.00;4889032;29;20051;-85
2021/09/29 13:11:52;;;;;;;4.18;2.25;;;;;;;16.48;25.31;100134.84;4890368;29;20071;-82
2021/09/29 13:14:18;;;;;;;5.75;2.63;;;;;;;15.91;24.88;100135.59;4919750;29;20060;-82
2021/09/29 13:16:45;;;;;;;3.70;2.35;;;;;;;14.94;26.78;100140.50;4887853;29;20054;-81
2021/09/29 13:19:15;;;;;;;5.47;2.40;;;;;;;13.88;28.48;100129.59;4888409;29;20047;-82
2021/09/29 13:22:03;;;;;;;3.88;2.50;;;;;;;13.22;28.83;100132.13;4890548;29;20046;-82
2021/09/29 13:38:01;;;;;;;5.57;4.03;;;;;;;11.58;34.83;100157.78;4923840;29;20415;-84
2021/09/29 13:40:27;;;;;;;3.42;2.88;;;;;;;11.48;35.68;100164.78;4891080;29;20103;-81
2021/09/29 13:42:53;;;;;;;5.53;2.88;;;;;;;11.27;36.24;100137.69;4906118;29;20075;-82
2021/09/29 13:45:19;;;;;;;3.85;3.42;;;;;;;11.34;35.19;100165.72;4906540;29;20067;-81
2021/09/29 13:47:45;;;;;;;5.10;3.25;;;;;;;11.17;36.36;100158.91;4920196;29;20534;-82
2021/09/29 13:50:13;;;;;;;5.95;3.85;;;;;;;11.10;35.91;100168.31;4890042;29;20035;-82
2021/09/29 13:52:39;;;;;;;4.00;3.33;;;;;;;10.94;37.02;100179.19;4905383;29;20082;-81
2021/09/29 13:55:09;;;;;;;5.68;3.05;;;;;;;10.92;36.79;100170.41;4889019;29;20592;-83
2021/09/29 13:57:42;;;;;;;5.43;3.00;;;;;;;10.78;37.98;100168.66;4890956;29;20065;-81
2021/09/29 14:03:06;;;;;;;8.13;3.65;;;;;;;10.75;37.30;100178.72;4935170;29;20099;-76
2021/09/29 14:30:19;;;;;;;14.52;6.57;;;;;;;9.08;40.61;100197.38;4921293;29;20047;-77
2021/09/29 14:33:02;;;;;;;12.10;6.68;;;;;;;9.03;40.48;100194.09;4907188;29;20489;-77
2021/09/29 14:35:28;;;;;;;17.25;7.47;;;;;;;8.96;40.74;100205.16;4891534;29;20050;-76